createdAt,value
2022-10-23T00:01:39.694Z,29.15
2022-10-23T00:04:17.044Z,30.88
2022-10-23T00:06:45.075Z,25.73
2022-10-23T00:09:17.382Z,31.88
2022-10-23T00:11:47.442Z,28.55
2022-10-23T00:14:16.302Z,25.17
2022-10-23T00:16:43.679Z,28.23
2022-10-23T00:19:10.878Z,25.70
2022-10-23T00:21:38.669Z,29.00
2022-10-23T00:24:06.614Z,25.83
2022-10-23T00:26:33.536Z,26.85
2022-10-23T00:29:00.587Z,29.77
2022-10-23T00:31:27.465Z,31.87
2022-10-23T00:33:54.381Z,30.58
2022-10-23T00:36:22.288Z,25.55
2022-10-23T00:38:50.721Z,24.52
2022-10-23T00:41:27.898Z,30.92
2022-10-23T00:44:02.143Z,25.03
2022-10-23T00:46:29.453Z,32.08
2022-10-23T00:48:57.520Z,27.08
2022-10-23T00:51:27.129Z,22.27
2022-10-23T00:54:06.508Z,27.92
2022-10-23T00:56:42.404Z,27.70
2022-10-23T00:59:09.282Z,30.00
2022-10-23T01:01:36.774Z,25.30
2022-10-23T01:04:06.689Z,24.90
2022-10-23T01:06:42.465Z,26.27
2022-10-23T01:09:43.711Z,25.43
2022-10-23T01:12:23.023Z,29.55
2022-10-23T01:15:23.839Z,28.25
2022-10-23T01:18:06.360Z,27.67
2022-10-23T01:20:43.706Z,25.42
2022-10-23T01:23:35.957Z,26.67
2022-10-23T01:26:24.164Z,26.02
2022-10-23T01:29:08.832Z,27.48
2022-10-23T01:32:08.026Z,26.30
2022-10-23T01:35:04.587Z,28.05
2022-10-23T01:38:05.752Z,28.87
2022-10-23T01:40:48.748Z,29.55
2022-10-23T01:43:26.151Z,31.52
2022-10-23T01:46:01.923Z,31.70
2022-10-23T01:48:31.498Z,29.35
2022-10-23T01:51:03.970Z,32.33
2022-10-23T01:53:36.258Z,31.20
2022-10-23T01:56:09.260Z,26.77
2022-10-23T01:58:37.034Z,29.27
2022-10-23T02:01:07.472Z,31.35
2022-10-23T02:03:37.795Z,32.00
2022-10-23T02:06:05.080Z,27.40
2022-10-23T02:08:32.408Z,29.52
2022-10-23T02:11:29.716Z,29.13
2022-10-23T02:14:34.553Z,32.08
2022-10-23T02:17:37.059Z,26.03
2022-10-23T02:20:22.674Z,32.58
2022-10-23T02:23:00.359Z,26.85
2022-10-23T02:26:22.076Z,29.58
2022-10-23T02:29:18.548Z,22.63
2022-10-23T02:31:45.764Z,28.27
2022-10-23T02:34:12.908Z,29.50
2022-10-23T02:36:39.779Z,27.60
2022-10-23T02:39:06.752Z,30.58
2022-10-23T02:41:56.515Z,29.73
2022-10-23T02:45:02.758Z,29.17
2022-10-23T02:48:04.476Z,30.92
2022-10-23T02:50:49.771Z,27.73
2022-10-23T02:53:26.396Z,28.92
2022-10-23T02:56:08.863Z,24.17
2022-10-23T02:59:11.034Z,29.90
2022-10-23T03:02:07.090Z,28.80
2022-10-23T03:04:35.121Z,21.98
2022-10-23T03:07:02.210Z,27.10
2022-10-23T03:09:29.632Z,26.55
2022-10-23T03:11:56.563Z,28.27
2022-10-23T03:14:23.453Z,29.42
2022-10-23T03:16:50.304Z,29.63
2022-10-23T03:19:17.200Z,25.63
2022-10-23T03:21:44.096Z,32.40
2022-10-23T03:24:10.992Z,25.00
2022-10-23T03:26:37.898Z,32.60
2022-10-23T03:29:04.790Z,32.50
2022-10-23T03:31:31.643Z,31.60
2022-10-23T03:33:59.383Z,29.00
2022-10-23T03:36:26.456Z,32.70
2022-10-23T03:38:53.784Z,27.60
2022-10-23T03:41:20.673Z,31.92
2022-10-23T03:43:47.542Z,28.52
2022-10-23T03:46:14.550Z,26.42
2022-10-23T03:48:41.999Z,24.07
2022-10-23T03:51:08.908Z,26.38
2022-10-23T03:53:36.171Z,26.60
2022-10-23T03:56:03.708Z,32.55
2022-10-23T03:58:31.437Z,25.58
2022-10-23T04:00:58.993Z,29.40
2022-10-23T04:03:26.086Z,29.65
2022-10-23T04:05:53.031Z,23.75
2022-10-23T04:08:20.245Z,29.80
2022-10-23T04:10:47.343Z,28.05
2022-10-23T04:13:14.295Z,24.63
2022-10-23T04:15:41.204Z,25.85
2022-10-23T04:18:08.072Z,26.73
2022-10-23T04:20:35.002Z,28.48
2022-10-23T04:23:01.902Z,26.38
2022-10-23T04:25:28.815Z,27.80
2022-10-23T04:27:55.674Z,26.05
2022-10-23T04:30:22.547Z,22.88
2022-10-23T04:32:53.287Z,24.50
2022-10-23T04:35:20.820Z,26.27
2022-10-23T04:37:47.736Z,22.57
2022-10-23T04:40:14.732Z,25.20
2022-10-23T04:42:41.953Z,21.83
2022-10-23T04:45:10.070Z,25.80
2022-10-23T04:47:36.998Z,21.75
2022-10-23T04:50:04.956Z,27.00
2022-10-23T04:52:31.848Z,25.25
2022-10-23T04:54:58.700Z,22.67
2022-10-23T04:57:25.575Z,23.05
2022-10-23T04:59:52.425Z,24.27
2022-10-23T05:02:19.373Z,23.23
2022-10-23T05:04:46.228Z,22.42
2022-10-23T05:07:13.110Z,21.85
2022-10-23T05:09:40.087Z,24.05
2022-10-23T05:12:06.975Z,26.95
2022-10-23T05:14:33.868Z,23.23
2022-10-23T05:17:08.005Z,24.35
2022-10-23T05:19:46.072Z,27.25
2022-10-23T05:22:14.378Z,20.58
2022-10-23T05:24:41.277Z,32.13
2022-10-23T05:27:08.143Z,20.70
2022-10-23T05:29:35.052Z,23.42
2022-10-23T05:32:04.984Z,25.88
2022-10-23T05:34:35.655Z,26.05
2022-10-23T05:37:04.791Z,24.58
2022-10-23T05:39:33.152Z,24.17
2022-10-23T05:42:00.572Z,24.58
2022-10-23T05:44:27.450Z,27.30
2022-10-23T05:46:54.344Z,26.75
2022-10-23T05:49:23.732Z,28.83
2022-10-23T05:51:50.719Z,29.83
2022-10-23T05:54:17.712Z,30.83
2022-10-23T05:56:44.647Z,23.77
2022-10-23T05:59:11.523Z,29.92
2022-10-23T06:01:38.582Z,27.70
2022-10-23T06:04:06.260Z,26.93
2022-10-23T06:06:33.173Z,30.05
2022-10-23T06:09:00.132Z,28.77
2022-10-23T06:11:27.053Z,25.73
2022-10-23T06:13:54.010Z,31.55
2022-10-23T06:16:25.338Z,27.20
2022-10-23T06:18:52.225Z,24.77
2022-10-23T06:21:19.627Z,22.45
2022-10-23T06:23:47.388Z,24.45
2022-10-23T06:26:16.636Z,26.38
2022-10-23T06:28:43.620Z,25.37
2022-10-23T06:31:14.477Z,29.02
2022-10-23T06:33:41.972Z,30.05
2022-10-23T06:36:10.422Z,27.65
2022-10-23T06:38:40.890Z,25.58
2022-10-23T06:41:15.511Z,20.70
2022-10-23T06:43:42.689Z,24.80
2022-10-23T06:46:10.087Z,28.10
2022-10-23T06:48:37.168Z,24.63
2022-10-23T06:51:09.759Z,26.48
2022-10-23T06:53:38.401Z,26.17
2022-10-23T06:56:07.301Z,25.42
2022-10-23T06:58:35.934Z,26.35
2022-10-23T07:01:06.953Z,24.90
2022-10-23T07:03:34.775Z,26.00
2022-10-23T07:06:08.389Z,24.53
2022-10-23T07:08:36.059Z,29.90
2022-10-23T07:11:07.117Z,29.92
2022-10-23T07:13:36.063Z,33.35
2022-10-23T07:16:21.287Z,35.13
2022-10-23T07:18:49.889Z,23.47
2022-10-23T07:21:16.779Z,33.08
2022-10-23T07:23:43.736Z,25.70
2022-10-23T07:26:15.166Z,27.48
2022-10-23T07:28:48.067Z,28.73
2022-10-23T07:31:15.284Z,31.47
2022-10-23T07:33:42.153Z,25.58
2022-10-23T07:36:10.370Z,26.33
2022-10-23T07:38:37.277Z,27.25
2022-10-23T07:41:07.775Z,28.67
2022-10-23T07:43:37.592Z,28.93
2022-10-23T07:46:05.194Z,31.23
2022-10-23T07:48:32.077Z,36.30
2022-10-23T07:51:01.732Z,31.27
2022-10-23T07:53:29.031Z,27.35
2022-10-23T07:55:59.314Z,30.93
2022-10-23T07:58:27.754Z,31.20
2022-10-23T08:01:00.209Z,31.15
2022-10-23T08:03:29.383Z,31.83
2022-10-23T08:05:57.878Z,30.58
2022-10-23T08:08:26.663Z,28.87
2022-10-23T08:10:55.660Z,27.17
2022-10-23T08:13:23.306Z,32.30
2022-10-23T08:15:52.788Z,28.60
2022-10-23T08:18:20.136Z,30.10
2022-10-23T08:20:48.920Z,30.97
2022-10-23T08:23:18.667Z,19.77
2022-10-23T08:25:47.312Z,23.13
2022-10-23T08:28:15.629Z,22.65
2022-10-23T08:30:42.551Z,24.70
2022-10-23T08:33:09.881Z,24.67
2022-10-23T08:35:38.636Z,27.48
2022-10-23T08:38:06.627Z,23.85
2022-10-23T08:40:36.096Z,22.88
2022-10-23T08:43:06.898Z,19.65
2022-10-23T08:46:04.130Z,19.43
2022-10-23T08:48:48.218Z,24.00
2022-10-23T08:51:21.899Z,21.90
2022-10-23T08:54:06.567Z,25.55
2022-10-23T08:56:38.276Z,21.88
2022-10-23T08:59:24.967Z,27.73
2022-10-23T09:02:22.299Z,24.30
2022-10-23T09:04:52.837Z,21.10
2022-10-23T09:07:34.018Z,19.83
2022-10-23T09:10:30.662Z,19.60
2022-10-23T09:13:12.780Z,18.23
2022-10-23T09:15:51.222Z,17.88
2022-10-23T09:18:18.116Z,18.33
2022-10-23T09:20:47.181Z,19.55
2022-10-23T09:23:21.483Z,18.63
2022-10-23T09:25:55.361Z,20.27
2022-10-23T09:28:32.349Z,18.38
2022-10-23T09:31:11.859Z,16.27
2022-10-23T09:33:39.662Z,16.20
2022-10-23T09:36:08.378Z,14.93
2022-10-23T09:38:45.294Z,18.67
2022-10-23T09:41:54.138Z,11.63
2022-10-23T09:44:26.672Z,14.55
2022-10-23T09:47:07.425Z,14.02
2022-10-23T09:49:35.691Z,15.63
2022-10-23T09:52:30.240Z,11.37
2022-10-23T09:55:01.363Z,15.35
2022-10-23T09:57:38.154Z,14.70
2022-10-23T10:00:22.319Z,17.13
2022-10-23T10:03:00.324Z,16.30
2022-10-23T10:05:31.592Z,14.77
2022-10-23T10:08:44.405Z,13.27
2022-10-23T10:11:33.591Z,16.05
2022-10-23T10:14:40.932Z,13.38
2022-10-23T10:17:34.706Z,15.75
2022-10-23T10:20:25.192Z,11.83
2022-10-23T10:23:18.348Z,16.30
2022-10-23T10:26:11.249Z,15.23
2022-10-23T10:29:10.989Z,12.15
2022-10-23T10:32:04.791Z,15.90
2022-10-23T10:34:52.585Z,11.03
2022-10-23T10:37:46.108Z,13.27
2022-10-23T10:40:38.487Z,13.45
2022-10-23T10:43:33.675Z,11.63
2022-10-23T10:46:37.454Z,11.65
2022-10-23T10:49:23.468Z,12.60
2022-10-23T10:52:13.875Z,14.68
2022-10-23T10:54:55.220Z,15.75
2022-10-23T10:57:43.734Z,9.32
2022-10-23T11:00:22.083Z,10.18
2022-10-23T11:02:59.787Z,10.77
2022-10-23T11:05:43.566Z,10.82
2022-10-23T11:08:50.054Z,11.77
2022-10-23T11:11:34.982Z,12.90
2022-10-23T11:14:02.705Z,15.90
2022-10-23T11:16:37.901Z,17.27
2022-10-23T11:19:28.991Z,11.40
2022-10-23T11:22:07.138Z,10.55
2022-10-23T11:24:58.240Z,11.85
2022-10-23T11:27:46.881Z,10.98
2022-10-23T11:30:35.976Z,13.83
2022-10-23T11:33:44.006Z,9.63
2022-10-23T11:36:18.683Z,12.98
2022-10-23T11:38:49.643Z,14.68
2022-10-23T11:41:28.379Z,11.02
2022-10-23T11:44:03.904Z,13.00
2022-10-23T11:46:39.927Z,11.88
2022-10-23T11:49:21.209Z,8.60
2022-10-23T11:51:48.218Z,12.98
2022-10-23T11:54:15.112Z,15.18
2022-10-23T11:57:03.185Z,8.80
2022-10-23T11:59:53.879Z,13.73
2022-10-23T12:02:36.698Z,9.05
2022-10-23T12:05:25.646Z,13.15
2022-10-23T12:08:02.342Z,10.93
2022-10-23T12:10:36.273Z,11.53
2022-10-23T12:13:06.112Z,8.93
2022-10-23T12:15:36.885Z,11.85
2022-10-23T12:18:17.935Z,11.98
2022-10-23T12:20:52.524Z,11.00
2022-10-23T12:24:01.299Z,12.30
2022-10-23T12:26:45.728Z,9.88
2022-10-23T12:29:50.416Z,10.88
2022-10-23T12:32:36.263Z,8.38
2022-10-23T12:35:20.754Z,9.90
2022-10-23T12:38:14.348Z,9.13
2022-10-23T12:41:11.402Z,8.60
2022-10-23T12:43:39.927Z,7.60
2022-10-23T12:46:47.778Z,10.88
2022-10-23T12:49:21.460Z,7.88
2022-10-23T12:52:04.399Z,8.87
2022-10-23T12:54:33.667Z,8.13
2022-10-23T12:57:00.676Z,8.02
2022-10-23T12:59:38.672Z,8.57
2022-10-23T13:02:30.610Z,13.65
2022-10-23T13:05:03.458Z,9.93
2022-10-23T13:07:35.917Z,9.15
2022-10-23T13:10:04.159Z,8.48
2022-10-23T13:12:34.468Z,11.55
2022-10-23T13:15:07.583Z,11.30
2022-10-23T13:17:43.807Z,9.63
2022-10-23T13:20:21.584Z,10.57
2022-10-23T13:23:00.593Z,10.50
2022-10-23T13:25:34.850Z,10.85
2022-10-23T13:28:07.865Z,8.85
2022-10-23T13:30:42.961Z,10.17
2022-10-23T13:33:24.975Z,11.93
2022-10-23T13:35:57.665Z,10.32
2022-10-23T13:38:39.601Z,13.73
2022-10-23T13:41:14.967Z,9.10
2022-10-23T13:43:42.651Z,14.10
2022-10-23T13:46:16.279Z,8.20
2022-10-23T13:48:43.376Z,9.52
2022-10-23T13:51:28.301Z,9.70
2022-10-23T13:53:57.030Z,10.77
2022-10-23T13:56:26.290Z,8.47
2022-10-23T13:58:54.323Z,12.25
2022-10-23T14:01:31.718Z,9.35
2022-10-23T14:03:59.904Z,8.95
2022-10-23T14:06:26.786Z,13.23
2022-10-23T14:08:53.733Z,10.43
2022-10-23T14:11:21.283Z,9.20
2022-10-23T14:13:49.172Z,10.48
2022-10-23T14:16:18.963Z,7.55
2022-10-23T14:18:45.907Z,7.25
2022-10-23T14:21:22.637Z,9.53
2022-10-23T14:23:51.077Z,13.00
2022-10-23T14:26:25.295Z,10.70
2022-10-23T14:28:54.587Z,8.85
2022-10-23T14:31:21.896Z,9.95
2022-10-23T14:33:55.840Z,12.00
2022-10-23T14:36:23.647Z,7.97
2022-10-23T14:38:55.743Z,13.35
2022-10-23T14:41:22.822Z,10.07
2022-10-23T14:43:49.756Z,10.95
2022-10-23T14:46:20.225Z,8.57
2022-10-23T14:48:49.447Z,8.25
2022-10-23T14:51:30.039Z,8.93
2022-10-23T14:54:01.670Z,11.00
2022-10-23T14:56:36.814Z,14.10
2022-10-23T14:59:04.814Z,7.90
2022-10-23T15:01:43.486Z,9.70
2022-10-23T15:04:14.339Z,9.32
2022-10-23T15:06:41.868Z,10.45
2022-10-23T15:09:09.047Z,7.35
2022-10-23T15:11:35.935Z,12.13
2022-10-23T15:14:02.820Z,8.55
2022-10-23T15:16:29.738Z,10.48
2022-10-23T15:18:56.658Z,11.07
2022-10-23T15:21:23.933Z,10.25
2022-10-23T15:23:51.143Z,8.63
2022-10-23T15:26:22.922Z,9.90
2022-10-23T15:29:00.022Z,7.78
2022-10-23T15:31:29.863Z,9.40
2022-10-23T15:33:57.825Z,14.68
2022-10-23T15:36:25.127Z,8.80
2022-10-23T15:38:52.284Z,11.45
2022-10-23T15:41:28.652Z,11.10
2022-10-23T15:43:55.601Z,11.25
2022-10-23T15:46:22.507Z,11.15
2022-10-23T15:48:49.388Z,11.90
2022-10-23T15:51:16.396Z,11.73
2022-10-23T15:53:43.292Z,7.32
2022-10-23T15:56:10.296Z,10.63
2022-10-23T15:58:37.187Z,16.15
2022-10-23T16:01:06.505Z,9.40
2022-10-23T16:03:38.862Z,15.63
2022-10-23T16:06:13.647Z,10.57
2022-10-23T16:08:41.468Z,14.95
2022-10-23T16:11:37.512Z,13.10
2022-10-23T16:14:05.277Z,14.23
2022-10-23T16:16:33.951Z,10.38
2022-10-23T16:19:04.927Z,12.52
2022-10-23T16:21:35.734Z,11.32
2022-10-23T16:24:06.240Z,11.07
2022-10-23T16:26:34.321Z,8.90
2022-10-23T16:29:05.773Z,11.38
2022-10-23T16:31:33.892Z,10.75
2022-10-23T16:34:02.586Z,14.68
2022-10-23T16:36:29.978Z,10.27
2022-10-23T16:38:57.121Z,12.40
2022-10-23T16:41:24.242Z,12.10
2022-10-23T16:43:51.630Z,11.18
2022-10-23T16:46:21.647Z,12.85
2022-10-23T16:48:50.956Z,14.02
2022-10-23T16:51:22.387Z,14.00
2022-10-23T16:53:49.419Z,12.57
2022-10-23T16:56:20.239Z,14.25
2022-10-23T16:58:47.434Z,12.82
2022-10-23T17:01:25.241Z,13.20
2022-10-23T17:03:53.439Z,12.10
2022-10-23T17:06:24.660Z,8.63
2022-10-23T17:08:52.439Z,20.25
2022-10-23T17:11:23.443Z,19.92
2022-10-23T17:14:03.617Z,16.88
2022-10-23T17:16:35.830Z,14.63
2022-10-23T17:19:15.811Z,16.13
2022-10-23T17:21:53.322Z,25.30
2022-10-23T17:24:20.676Z,19.23
2022-10-23T17:26:48.362Z,14.25
2022-10-23T17:29:15.686Z,11.43
2022-10-23T17:31:46.549Z,15.20
2022-10-23T17:34:18.472Z,10.07
2022-10-23T17:36:49.527Z,8.90
2022-10-23T17:39:20.065Z,8.40
2022-10-23T17:41:47.499Z,12.47
2022-10-23T17:44:14.714Z,9.57
2022-10-23T17:46:41.920Z,10.98
2022-10-23T17:49:09.785Z,12.25
2022-10-23T17:51:37.267Z,11.45
2022-10-23T17:54:08.630Z,10.10
2022-10-23T17:56:38.280Z,11.15
2022-10-23T17:59:09.953Z,10.45
2022-10-23T18:01:37.158Z,12.00
2022-10-23T18:04:07.266Z,9.18
2022-10-23T18:06:41.779Z,10.97
2022-10-23T18:09:08.929Z,11.30
2022-10-23T18:11:42.609Z,10.52
2022-10-23T18:14:12.906Z,13.65
2022-10-23T18:16:40.680Z,35.03
2022-10-23T18:19:07.906Z,58.03
2022-10-23T18:21:35.813Z,30.30
2022-10-23T18:24:03.892Z,20.67
2022-10-23T18:26:34.964Z,22.73
2022-10-23T18:29:04.847Z,14.18
2022-10-23T18:31:31.923Z,11.57
2022-10-23T18:34:03.106Z,11.52
2022-10-23T18:36:34.379Z,15.27
2022-10-23T18:39:01.799Z,14.68
2022-10-23T18:41:35.659Z,9.73
2022-10-23T18:44:03.559Z,11.43
2022-10-23T18:46:30.441Z,10.20
2022-10-23T18:48:57.358Z,12.00
2022-10-23T18:51:29.352Z,9.55
2022-10-23T18:53:59.659Z,12.80
2022-10-23T18:56:27.763Z,13.13
2022-10-23T18:59:01.631Z,11.52
2022-10-23T19:01:31.017Z,9.57
2022-10-23T19:04:00.702Z,10.30
2022-10-23T19:06:29.033Z,11.35
2022-10-23T19:08:56.859Z,14.80
2022-10-23T19:11:26.524Z,14.80
2022-10-23T19:13:53.508Z,14.70
2022-10-23T19:16:24.500Z,14.63
2022-10-23T19:18:59.195Z,13.43
2022-10-23T19:21:33.021Z,10.97
2022-10-23T19:24:09.159Z,16.50
2022-10-23T19:26:38.103Z,10.15
2022-10-23T19:29:07.768Z,12.82
2022-10-23T19:31:35.002Z,13.80
2022-10-23T19:34:01.884Z,13.93
2022-10-23T19:36:28.743Z,12.55
2022-10-23T19:38:55.661Z,10.40
2022-10-23T19:41:23.167Z,14.82
2022-10-23T19:43:50.057Z,12.45
2022-10-23T19:46:17.047Z,11.07
2022-10-23T19:48:45.604Z,10.30
2022-10-23T19:51:13.456Z,12.73
2022-10-23T19:53:42.519Z,15.85
2022-10-23T19:56:11.398Z,12.82
2022-10-23T19:58:39.551Z,13.13
2022-10-23T20:01:16.530Z,11.57
2022-10-23T20:03:45.475Z,9.45
2022-10-23T20:06:16.141Z,11.27
2022-10-23T20:08:43.517Z,11.23
2022-10-23T20:11:24.382Z,12.43
2022-10-23T20:13:52.016Z,11.27
2022-10-23T20:16:27.053Z,11.70
2022-10-23T20:18:54.577Z,11.05
2022-10-23T20:21:22.803Z,12.75
2022-10-23T20:23:50.039Z,13.40
2022-10-23T20:26:21.797Z,9.65
2022-10-23T20:28:53.289Z,9.10
2022-10-23T20:31:23.028Z,11.13
2022-10-23T20:33:50.859Z,7.10
2022-10-23T20:36:32.946Z,10.20
2022-10-23T20:39:05.925Z,7.68
2022-10-23T20:41:36.710Z,8.93
2022-10-23T20:44:08.989Z,7.40
2022-10-23T20:46:36.144Z,7.60
2022-10-23T20:49:03.655Z,5.87
2022-10-23T20:51:30.799Z,11.25
2022-10-23T20:53:57.892Z,6.47
2022-10-23T20:56:32.304Z,6.88
2022-10-23T20:59:13.243Z,8.85
2022-10-23T21:01:49.370Z,8.63
2022-10-23T21:04:22.934Z,7.57
2022-10-23T21:07:11.309Z,6.47
2022-10-23T21:09:39.885Z,8.30
2022-10-23T21:12:07.640Z,5.95
2022-10-23T21:14:35.597Z,6.17
2022-10-23T21:17:02.914Z,5.38
2022-10-23T21:19:29.800Z,4.20
2022-10-23T21:21:57.275Z,7.68
2022-10-23T21:24:24.536Z,4.60
2022-10-23T21:26:52.042Z,10.63
2022-10-23T21:29:20.316Z,5.18
2022-10-23T21:32:00.950Z,6.50
2022-10-23T21:34:28.347Z,4.50
2022-10-23T21:39:43.543Z,3.77
2022-10-23T21:42:12.092Z,7.00
2022-10-23T21:44:39.013Z,6.55
2022-10-23T21:47:06.145Z,8.38
2022-10-23T21:49:33.117Z,9.77
2022-10-23T21:52:00.020Z,8.63
2022-10-23T21:54:27.059Z,8.93
2022-10-23T21:56:54.166Z,6.60
2022-10-23T21:59:27.801Z,6.05
2022-10-23T22:01:57.244Z,5.57
2022-10-23T22:04:24.288Z,7.70
2022-10-23T22:06:51.279Z,5.88
2022-10-23T22:09:20.964Z,7.13
2022-10-23T22:11:52.598Z,5.57
2022-10-23T22:14:20.473Z,8.25
2022-10-23T22:16:47.925Z,6.53
2022-10-23T22:19:17.452Z,8.10
2022-10-23T22:21:44.821Z,4.47
2022-10-23T22:24:12.100Z,8.15
2022-10-23T22:26:47.666Z,7.18
2022-10-23T22:29:18.624Z,7.40
2022-10-23T22:31:48.858Z,7.32
2022-10-23T22:34:51.791Z,6.18
2022-10-23T22:37:19.532Z,10.45
2022-10-23T22:39:47.425Z,9.77
2022-10-23T22:42:14.288Z,12.93
2022-10-23T22:44:41.155Z,6.28
2022-10-23T22:47:08.072Z,7.82
2022-10-23T22:49:35.007Z,8.68
2022-10-23T22:52:01.948Z,12.13
2022-10-23T22:54:31.131Z,8.47
2022-10-23T22:56:58.290Z,10.60
2022-10-23T22:59:25.182Z,7.00
2022-10-23T23:01:52.213Z,9.02
2022-10-23T23:04:37.240Z,10.20
2022-10-23T23:07:08.158Z,7.87
2022-10-23T23:09:44.313Z,11.00
2022-10-23T23:12:13.703Z,9.30
2022-10-23T23:14:41.466Z,9.70
2022-10-23T23:17:09.801Z,11.93
2022-10-23T23:19:37.395Z,9.00
2022-10-23T23:22:05.237Z,10.57
2022-10-23T23:24:32.467Z,8.60
2022-10-23T23:26:59.362Z,8.63
2022-10-23T23:29:29.360Z,7.28
2022-10-23T23:31:56.222Z,7.17
2022-10-23T23:34:23.145Z,7.18
2022-10-23T23:36:50.047Z,8.77
2022-10-23T23:39:17.444Z,8.70
2022-10-23T23:41:44.324Z,6.20
2022-10-23T23:44:11.267Z,7.83
2022-10-23T23:46:38.148Z,10.35
2022-10-23T23:49:05.175Z,7.78
2022-10-23T23:51:32.431Z,8.43
2022-10-23T23:53:59.420Z,11.32
2022-10-23T23:56:26.429Z,10.60
2022-10-23T23:58:53.330Z,9.30
